M I D A S
Marine Information and Data Acquisition System
Tripno 1519 of the Zeeleeuw from 2008-07-15 08:24:35 to 2008-07-15 13:17:33
Back to CruiseResearch ActivitiesStationsMapUnderway DataData graphs

EquipmentUnitsComment
TimeDGPSUTC
LatitudeDGPSDM.mWGS84
LongitudeDGPSDM.mWGS84
TemperatureSBE03/SBE38deg celciusITS90
ConductivitySBE21S/mITS90
SalinitySBE21 Practical Salinity Units
ChlorophylAChelsea fluorimeterg/lCalibrated in Aceton
Missing or incorrect values are displayed as -999
Sea surface data collected by the RV Zeeleeuw from 2008-07-15 08:26:28 to 2008-07-15 13:18:59
Time Latitude Longitude Temperature Conductivity Salinity ChlorophylA
2008-07-15 08:27:33 51°13.645 2°55.97 21.0026 2.298416 16.245122 -1.592577
2008-07-15 08:28:33 51°13.681 2°55.854 21.0232 2.297072 16.234111 -1.592577
2008-07-15 08:29:33 51°13.711 2°55.755 21.0153 2.297486 16.236367 -1.592577
2008-07-15 08:30:33 51°13.724 2°55.743 18.8809 4.382553 31.805142 0.670986
2008-07-15 08:31:33 51°13.722 2°55.74 18.4643 4.324963 32.048785 3.770327
2008-07-15 08:32:33 51°13.77 2°55.695 18.402 4.304418 32.09777 4.153392
2008-07-15 08:33:33 51°13.863 2°55.606 18.3728 4.257098 31.742899 4.257864
2008-07-15 08:34:33 51°13.963 2°55.528 18.3374 4.260315 31.794676 4.257864
2008-07-15 08:35:33 51°14.058 2°55.455 18.2963 4.274325 31.939632 4.501632
2008-07-15 08:36:33 51°14.167 2°55.366 18.2535 4.29643 32.164945 5.058817
2008-07-15 08:37:33 51°14.287 2°55.203 18.23 4.304421 32.25164 4.745401
2008-07-15 08:38:33 51°14.414 2°55.012 18.1135 4.348011 32.663977 5.023993
2008-07-15 08:39:33 51°14.599 2°54.889 18.058 4.436345 33.494214 5.232937
2008-07-15 08:40:32 51°14.787 2°54.763 18.0068 4.493755 34.015941 4.919521
2008-07-15 08:41:31 51°14.957 2°54.597 17.9817 4.512755 34.219517 5.232937
2008-07-15 08:42:30 51°15.129 2°54.441 17.9711 4.525526 34.336664 5.68565
2008-07-15 08:43:30 51°15.309 2°54.292 17.9215 4.531756 34.411019 5.302586
2008-07-15 08:44:30 51°15.491 2°54.143 17.8742 4.53373 34.468711 4.57128
2008-07-15 08:45:30 51°15.667 2°53.983 17.8482 4.539233 34.545874 3.735503
2008-07-15 08:46:30 51°15.841 2°53.817 17.8102 4.543595 34.612767 2.899726
2008-07-15 08:47:30 51°16.017 2°53.655 17.8292 4.545049 34.643438 2.899726
2008-07-15 08:48:30 51°16.192 2°53.492 17.8172 4.546398 34.640077 3.770327
2008-07-15 08:49:29 51°16.367 2°53.338 17.7523 4.544114 34.646966 3.561383
2008-07-15 08:50:30 51°16.541 2°53.203 17.7045 4.539754 34.663247 3.491735
2008-07-15 08:51:30 51°16.702 2°53.081 17.6784 4.53664 34.66851 3.596207
2008-07-15 08:52:30 51°16.859 2°52.957 17.6675 4.534979 34.677401 3.004198
2008-07-15 08:53:30 51°17.016 2°52.836 17.6695 4.534979 34.680123 2.377365
2008-07-15 08:54:30 51°17.174 2°52.712 17.6721 4.535187 34.681221 2.133597
2008-07-15 08:55:30 51°17.33 2°52.586 17.6642 4.534979 34.682164 1.9943
2008-07-15 08:56:30 51°17.483 2°52.452 17.6582 4.534253 34.682062 1.924652
2008-07-15 08:57:29 51°17.632 2°52.318 17.6519 4.533422 34.679708 1.82018
2008-07-15 08:58:29 51°17.784 2°52.18 17.6481 4.532591 34.67395 1.680884
2008-07-15 08:59:29 51°17.935 2°52.046 17.6398 4.520236 34.57419 1.680884
2008-07-15 09:00:30 51°18.089 2°51.909 17.6362 4.530619 34.667251 1.750532
2008-07-15 09:01:29 51°18.238 2°51.777 17.6331 4.530307 34.672071 1.680884
2008-07-15 09:02:30 51°18.393 2°51.644 17.6303 4.529892 34.66851 1.506764
2008-07-15 09:03:29 51°18.54 2°51.515 17.6292 4.529788 34.669662 1.332643
2008-07-15 09:04:30 51°18.693 2°51.379 17.6248 4.529581 34.671287 1.228171
2008-07-15 09:05:29 51°18.843 2°51.244 17.6181 4.529477 34.674484 1.019227
2008-07-15 09:06:30 51°18.994 2°51.114 17.6096 4.530204 34.684806 0.810283
2008-07-15 09:07:29 51°19.12 2°51.011 17.5803 4.530412 34.700908 0.566514
2008-07-15 09:08:30 51°19.209 2°50.859 17.5546 4.529789 34.720138 0.427218
2008-07-15 09:09:30 51°19.258 2°50.659 17.5437 4.529167 34.731875 0.427218
2008-07-15 09:10:30 51°19.311 2°50.45 17.5331 4.528751 34.735146 0.392394
2008-07-15 09:11:30 51°19.366 2°50.242 17.5358 4.528128 34.735266 0.287922
2008-07-15 09:12:29 51°19.421 2°50.045 17.5263 4.527506 34.731964 0.253098
2008-07-15 09:13:30 51°19.478 2°49.836 17.5006 4.525325 34.728961 0.35757
2008-07-15 09:14:29 51°19.527 2°49.629 17.4714 4.522938 34.727595 0.53169
2008-07-15 09:15:30 51°19.578 2°49.419 17.4346 4.519512 34.726206 0.740634
2008-07-15 09:16:30 51°19.623 2°49.207 17.3959 4.515878 34.725092 1.088875
2008-07-15 09:17:30 51°19.667 2°48.996 17.3668 4.512245 34.723984 1.262995
2008-07-15 09:18:30 51°19.711 2°48.783 17.353 4.510065 34.72511 1.437116
2008-07-15 09:19:30 51°19.755 2°48.57 17.3387 4.509338 34.731905 1.576412
2008-07-15 09:20:30 51°19.801 2°48.354 17.3421 4.509442 34.73968 1.64606
2008-07-15 09:21:30 51°19.848 2°48.14 17.342 4.510585 34.752979 1.541588
2008-07-15 09:22:30 51°19.895 2°47.927 17.3439 4.512142 34.762289 1.297819
2008-07-15 09:23:30 51°19.943 2°47.714 17.3383 4.513699 34.772976 1.019227
2008-07-15 09:24:30 51°19.986 2°47.501 17.3242 4.514115 34.785517 0.601338
2008-07-15 09:25:30 51°20.007 2°47.287 17.297 4.513284 34.795582 0.287922
2008-07-15 09:26:30 51°20.025 2°47.068 17.2686 4.51152 34.803107 0.148626
2008-07-15 09:27:30 51°20.046 2°46.847 17.2464 4.509547 34.807468 0.078977
2008-07-15 09:28:30 51°20.068 2°46.628 17.2256 4.507471 34.808173 0.044153
2008-07-15 09:29:30 51°20.091 2°46.412 17.2173 4.505706 34.807427 -0.025495
2008-07-15 09:30:30 51°20.11 2°46.199 17.2092 4.504461 34.804255 -0.060319
2008-07-15 09:31:30 51°20.132 2°45.979 17.1993 4.503526 34.802394 -0.095143
2008-07-15 09:32:30 51°20.156 2°45.758 17.1916 4.502592 34.801918 -0.060319
2008-07-15 09:33:30 51°20.181 2°45.537 17.1825 4.501762 34.803034 -0.025495
2008-07-15 09:34:30 51°20.205 2°45.309 17.1741 4.501346 34.807055 0.044153
2008-07-15 09:35:30 51°20.22 2°45.078 17.1694 4.501658 34.815989 0.148626
2008-07-15 09:36:30 51°20.238 2°44.848 17.1653 4.502177 34.823953 0.218274
2008-07-15 09:37:30 51°20.256 2°44.619 17.165 4.502073 34.825133 0.18345
2008-07-15 09:38:30 51°20.277 2°44.39 17.1644 4.502177 34.825339 0.253098
2008-07-15 09:39:30 51°20.298 2°44.163 17.1559 4.50197 34.826314 0.322746
2008-07-15 09:40:30 51°20.318 2°43.935 17.1431 4.501658 34.831937 0.392394
2008-07-15 09:41:30 51°20.336 2°43.708 17.114 4.500828 34.841393 0.427218
2008-07-15 09:42:30 51°20.355 2°43.484 17.1062 4.49979 34.849752 0.35757
2008-07-15 09:43:30 51°20.375 2°43.258 17.0967 4.499479 34.85539 0.322746
2008-07-15 09:44:29 51°20.39 2°43.034 17.0898 4.499583 34.865332 0.322746
2008-07-15 09:45:30 51°20.406 2°42.806 17.0958 4.500725 34.875941 0.35757
2008-07-15 09:46:29 51°20.416 2°42.582 17.1002 4.501659 34.879877 0.322746
2008-07-15 09:47:30 51°20.427 2°42.349 17.1006 4.501971 34.880493 0.322746
2008-07-15 09:48:30 51°20.437 2°42.126 17.1007 4.501971 34.880493 0.392394
2008-07-15 09:49:30 51°20.452 2°41.909 17.1017 4.501763 34.879387 0.392394
2008-07-15 09:50:30 51°20.471 2°41.69 17.0974 4.501659 34.879181 0.427218
2008-07-15 09:51:29 51°20.486 2°41.472 17.1038 4.500621 34.870865 0.35757
2008-07-15 09:52:30 51°20.506 2°41.246 17.1065 4.500413 34.861413 0.287922
2008-07-15 09:53:30 51°20.525 2°41.022 17.0957 4.500932 34.866613 0.322746
2008-07-15 09:54:30 51°20.541 2°40.797 17.0762 4.50031 34.873728 0.35757
2008-07-15 09:55:30 51°20.553 2°40.569 17.0612 4.498649 34.876009 0.427218
2008-07-15 09:56:30 51°20.566 2°40.341 17.0593 4.497714 34.87625 0.462042
2008-07-15 09:57:30 51°20.579 2°40.113 17.0564 4.498026 34.881045 0.427218
2008-07-15 09:58:30 51°20.593 2°39.885 17.0556 4.498026 34.881742 0.427218
2008-07-15 09:59:30 51°20.608 2°39.661 17.0557 4.497714 34.881126 0.462042
2008-07-15 10:00:30 51°20.622 2°39.435 17.0582 4.497714 34.879733 0.496866
2008-07-15 10:01:30 51°20.635 2°39.209 17.0551 4.497507 34.878626 0.496866
2008-07-15 10:02:29 51°20.648 2°38.985 17.0516 4.497092 34.877804 0.53169
2008-07-15 10:03:30 51°20.661 2°38.756 17.0477 4.496884 34.87809 0.53169
2008-07-15 10:04:29 51°20.674 2°38.534 17.0439 4.496469 34.877966 0.566514
2008-07-15 10:05:30 51°20.688 2°38.305 17.0396 4.496261 34.879646 0.566514
2008-07-15 10:06:30 51°20.696 2°38.079 17.0337 4.496261 34.881737 0.496866
2008-07-15 10:07:30 51°20.705 2°37.853 17.0317 4.496157 34.886411 0.427218
2008-07-15 10:08:30 51°20.712 2°37.629 17.028 4.496469 34.889816 0.462042
2008-07-15 10:09:30 51°20.72 2°37.404 17.0263 4.496573 34.894205 0.392394
2008-07-15 10:10:30 51°20.727 2°37.179 17.0205 4.496781 34.898801 0.35757
2008-07-15 10:11:30 51°20.734 2°36.952 17.0176 4.496884 34.903192 0.35757
2008-07-15 10:12:30 51°20.743 2°36.726 17.0189 4.497092 34.907092 0.35757
2008-07-15 10:13:30 51°20.751 2°36.505 17.0275 4.497715 34.909717 0.35757
2008-07-15 10:14:30 51°20.759 2°36.284 17.0277 4.498234 34.909345 0.35757
2008-07-15 10:15:30 51°20.77 2°36.066 17.0265 4.498026 34.90754 0.322746
2008-07-15 10:16:30 51°20.838 2°35.867 17.0183 4.497403 34.904915 0.462042
2008-07-15 10:17:30 51°20.924 2°35.672 17.0091 4.496365 34.902866 0.496866
2008-07-15 10:18:30 51°20.999 2°35.47 16.9954 4.495431 34.903116 0.53169
2008-07-15 10:19:30 51°21.084 2°35.271 16.9834 4.494497 34.905462 0.601338
2008-07-15 10:20:30 51°21.188 2°35.096 16.9712 4.49377 34.909617 0.601338
2008-07-15 10:21:30 51°21.302 2°34.928 16.9579 4.492732 34.91456 0.462042
2008-07-15 10:22:30 51°21.427 2°34.774 16.9504 4.493044 34.924265 0.427218
2008-07-15 10:23:30 51°21.571 2°34.652 16.9345 4.493771 34.941092 0.322746
2008-07-15 10:24:30 51°21.732 2°34.622 16.9282 4.492837 34.941355 0.322746
2008-07-15 10:25:30 51°21.888 2°34.651 16.9249 4.492006 34.940422 0.287922
2008-07-15 10:26:30 51°22.04 2°34.674 16.9333 4.491487 34.937299 0.287922
2008-07-15 10:27:30 51°22.19 2°34.689 16.9478 4.492629 34.936745 0.253098
2008-07-15 10:28:30 51°22.313 2°34.78 16.9495 4.493667 34.936687 0.18345
2008-07-15 10:29:30 51°22.316 2°34.999 16.9483 4.493771 34.938292 0.287922
2008-07-15 10:30:30 51°22.309 2°35.192 16.9555 4.493978 34.938 0.35757
2008-07-15 10:31:30 51°22.314 2°35.354 16.9638 4.495016 34.937943 0.35757
2008-07-15 10:32:30 51°22.326 2°35.504 16.9682 4.495743 34.939373 0.35757
2008-07-15 10:33:30 51°22.337 2°35.658 16.9713 4.496055 34.939286 0.322746
2008-07-15 10:34:30 51°22.375 2°35.816 16.974 4.496262 34.940394 0.322746
2008-07-15 10:35:30 51°22.455 2°35.979 16.9797 4.496574 34.939608 0.253098
2008-07-15 10:36:30 51°22.569 2°36.023 16.9791 4.496781 34.939317 0.18345
2008-07-15 10:37:30 51°22.642 2°35.905 16.9845 4.496885 34.938822 0.18345
2008-07-15 10:38:30 51°22.711 2°35.732 16.9825 4.497404 34.938445 0.148626
2008-07-15 10:39:30 51°22.752 2°35.532 16.9753 4.496989 34.939026 0.078977
2008-07-15 10:40:30 51°22.79 2°35.325 16.9662 4.496262 34.939695 0.044153
2008-07-15 10:41:30 51°22.818 2°35.118 16.9542 4.495536 34.940364 0.113802
2008-07-15 10:42:30 51°22.842 2°34.907 16.9428 4.49429 34.940713 0.18345
2008-07-15 10:43:30 51°22.866 2°34.693 16.9333 4.493563 34.942784 0.18345
2008-07-15 10:44:30 51°22.891 2°34.481 16.9261 4.49294 34.944361 0.148626
2008-07-15 10:45:30 51°22.906 2°34.271 16.915 4.492318 34.94734 0.148626
2008-07-15 10:46:30 51°22.909 2°34.061 16.9104 4.491902 34.950027 0.148626
2008-07-15 10:47:30 51°22.908 2°33.85 16.8985 4.491384 34.953915 0.148626
2008-07-15 10:48:30 51°22.908 2°33.639 16.8929 4.490968 34.955904 0.113802
2008-07-15 10:49:30 51°22.911 2°33.431 16.8825 4.490761 34.96181 0.113802
2008-07-15 10:50:30 51°22.912 2°33.225 16.8711 4.490346 34.968014 0.148626
2008-07-15 10:51:30 51°22.914 2°33.018 16.8587 4.490034 34.975127 0.148626
2008-07-15 10:52:30 51°22.916 2°32.845 16.8624 4.490346 34.97925 0.113802
2008-07-15 10:53:30 51°22.923 2°32.696 16.8567 4.490554 34.98317 0.113802
2008-07-15 10:54:30 51°22.933 2°32.554 16.8531 4.490242 34.988885 0.113802
2008-07-15 10:55:30 51°22.938 2°32.41 16.844 4.490242 34.989588 0.113802
2008-07-15 10:56:30 51°22.944 2°32.268 16.8388 4.489931 34.994604 0.078977
2008-07-15 10:57:30 51°22.951 2°32.126 16.8322 4.489723 34.997714 0.078977
2008-07-15 10:58:30 51°22.958 2°31.979 16.8271 4.48962 34.999622 0.078977
2008-07-15 10:59:30 51°22.972 2°31.831 16.811 4.488893 35.005942 0.078977
2008-07-15 11:00:30 51°23.023 2°31.692 16.8022 4.488166 35.010155 0.113802
2008-07-15 11:01:30 51°23.078 2°31.559 16.7506 4.48744 35.021419 0.078977
2008-07-15 11:02:30 51°23.129 2°31.427 16.7307 4.484637 35.02794 0.078977
2008-07-15 11:03:30 51°23.179 2°31.293 16.7235 4.482873 35.030145 0.044153
2008-07-15 11:04:30 51°23.231 2°31.157 16.7134 4.482042 35.032057 0.078977
2008-07-15 11:05:30 51°23.282 2°31.018 16.7056 4.48142 35.034376 0.078977
2008-07-15 11:06:30 51°23.334 2°30.879 16.7051 4.480901 35.036899 0.044153
2008-07-15 11:07:30 51°23.384 2°30.74 16.7156 4.481835 35.041548 -0.060319
2008-07-15 11:08:30 51°23.435 2°30.599 16.7148 4.482873 35.044985 -0.060319
2008-07-15 11:09:30 51°23.488 2°30.459 16.7235 4.483288 35.042966 -0.060319
2008-07-15 11:10:30 51°23.567 2°30.336 16.722 4.483496 35.041251 -0.060319
2008-07-15 11:11:30 51°23.677 2°30.246 16.718 4.483288 35.040139 -0.060319
2008-07-15 11:12:30 51°23.801 2°30.18 16.7175 4.483184 35.040644 -0.060319
2008-07-15 11:13:30 51°23.934 2°30.144 16.709 4.482977 35.043773 -0.060319
2008-07-15 11:14:30 51°24.073 2°30.129 16.7026 4.482458 35.046297 -0.095143
2008-07-15 11:15:30 51°24.205 2°30.152 16.7033 4.482458 35.049833 -0.095143
2008-07-15 11:16:30 51°24.33 2°30.189 16.6943 4.482354 35.05246 -0.095143
2008-07-15 11:17:30 51°24.441 2°30.27 16.6879 4.482354 35.056705 -0.129967
2008-07-15 11:18:30 51°24.501 2°30.439 16.6909 4.482147 35.057716 -0.129967
2008-07-15 11:19:30 51°24.512 2°30.625 16.6941 4.482458 35.059738 -0.164791
2008-07-15 11:20:30 51°24.492 2°30.798 16.6949 4.482562 35.059232 -0.129967
2008-07-15 11:21:30 51°24.45 2°30.948 16.6972 4.482562 35.056402 -0.095143
2008-07-15 11:22:30 51°24.391 2°31.061 16.704 4.482873 35.054885 -0.060319
2008-07-15 11:23:30 51°24.33 2°31.173 16.7095 4.483081 35.053168 -0.025495
2008-07-15 11:24:30 51°24.272 2°31.289 16.7181 4.483704 35.050844 -0.025495
2008-07-15 11:25:30 51°24.213 2°31.35 16.7267 4.484534 35.048927 0.009329
2008-07-15 11:26:30 51°24.148 2°31.42 16.7332 4.484638 35.046302 0.044153
2008-07-15 11:27:30 51°24.08 2°31.501 16.7315 4.485053 35.047818 0.078977
2008-07-15 11:28:30 51°24.003 2°31.583 16.7328 4.485261 35.048222 0.078977
2008-07-15 11:29:30 51°23.925 2°31.666 16.7318 4.485572 35.048122 0.078977
2008-07-15 11:30:30 51°23.846 2°31.753 16.7244 4.485261 35.048929 0.078977
2008-07-15 11:31:30 51°23.764 2°31.838 16.7159 4.484638 35.049129 0.113802
2008-07-15 11:32:30 51°23.678 2°31.926 16.7126 4.483704 35.048723 0.113802
2008-07-15 11:33:30 51°23.591 2°32.013 16.7077 4.483081 35.04751 0.18345
2008-07-15 11:34:30 51°23.489 2°32.089 16.7018 4.482043 35.044074 0.218274
2008-07-15 11:35:30 51°23.382 2°32.17 16.7021 4.481212 35.039627 0.287922
2008-07-15 11:36:30 51°23.274 2°32.248 16.7098 4.481004 35.03498 0.322746
2008-07-15 11:37:30 51°23.166 2°32.327 16.7257 4.481316 35.03064 0.35757
2008-07-15 11:38:30 51°23.06 2°32.409 16.7325 4.481523 35.019037 0.392394
2008-07-15 11:39:30 51°22.953 2°32.49 16.7472 4.482665 35.019148 0.392394
2008-07-15 11:40:30 51°22.846 2°32.565 16.7625 4.48308 35.010786 0.392394
2008-07-15 11:41:30 51°22.762 2°32.508 16.7795 4.485364 35.016659 0.35757
2008-07-15 11:42:30 51°22.707 2°32.389 16.7841 4.48609 35.015258 0.322746
2008-07-15 11:43:30 51°22.645 2°32.272 16.7876 4.486609 35.014157 0.35757
2008-07-15 11:44:30 51°22.568 2°32.176 16.7908 4.487025 35.014264 0.322746
2008-07-15 11:45:30 51°22.472 2°32.118 16.7915 4.487129 35.014467 0.35757
2008-07-15 11:46:30 51°22.357 2°32.18 16.8013 4.485675 34.998943 0.35757
2008-07-15 11:47:30 51°22.236 2°32.266 16.8285 4.487336 34.997968 0.35757
2008-07-15 11:48:30 51°22.119 2°32.357 16.8632 4.4891 34.989461 0.322746
2008-07-15 11:49:30 51°21.999 2°32.445 16.8849 4.491903 34.986517 0.322746
2008-07-15 11:50:30 51°21.878 2°32.533 16.893 4.494083 34.990085 0.287922
2008-07-15 11:51:30 51°21.763 2°32.65 16.8988 4.49564 34.995944 0.253098
2008-07-15 11:52:30 51°21.656 2°32.791 16.8998 4.496678 35.002189 0.218274
2008-07-15 11:53:30 51°21.566 2°32.972 16.8955 4.497198 35.006716 0.18345
2008-07-15 11:54:30 51°21.479 2°33.153 16.9038 4.497405 35.009229 0.148626
2008-07-15 11:55:30 51°21.39 2°33.335 16.9055 4.498028 35.009745 0.148626
2008-07-15 11:56:30 51°21.301 2°33.519 16.9105 4.498443 35.010557 0.18345
2008-07-15 11:57:30 51°21.221 2°33.716 16.9157 4.498755 35.009762 0.253098
2008-07-15 11:58:30 51°21.147 2°33.919 16.9154 4.498547 35.004442 0.322746
2008-07-15 11:59:30 51°21.072 2°34.123 16.9226 4.497613 34.994892 0.322746
2008-07-15 12:00:30 51°20.999 2°34.326 16.9481 4.497301 34.982357 0.392394
2008-07-15 12:01:30 51°20.925 2°34.528 16.9692 4.497404 34.962238 0.496866
2008-07-15 12:02:30 51°20.853 2°34.735 16.9861 4.4973 34.943836 0.601338
2008-07-15 12:03:30 51°20.78 2°34.94 16.9956 4.497612 34.933959 0.566514
2008-07-15 12:04:30 51°20.705 2°35.145 16.9935 4.497611 34.927669 0.496866
2008-07-15 12:05:30 51°20.628 2°35.347 16.994 4.496781 34.921142 0.462042
2008-07-15 12:06:30 51°20.552 2°35.55 16.9933 4.496158 34.916421 0.462042
2008-07-15 12:07:30 51°20.475 2°35.754 16.9985 4.495639 34.910508 0.462042
2008-07-15 12:08:30 51°20.395 2°35.955 17.0063 4.495743 34.907221 0.427218
2008-07-15 12:09:30 51°20.315 2°36.155 17.0118 4.496365 34.905658 0.427218
2008-07-15 12:10:30 51°20.234 2°36.353 17.0185 4.496884 34.905984 0.35757
2008-07-15 12:11:30 51°20.153 2°36.549 17.0245 4.497819 34.906432 0.35757
2008-07-15 12:12:30 51°20.072 2°36.747 17.0274 4.498545 34.910657 0.35757
2008-07-15 12:13:30 51°19.991 2°36.946 17.0298 4.498961 34.912872 0.392394
2008-07-15 12:14:30 51°19.908 2°37.14 17.0386 4.499584 34.913403 0.392394
2008-07-15 12:15:30 51°19.826 2°37.334 17.0383 4.500414 34.91504 0.392394
2008-07-15 12:16:30 51°19.744 2°37.529 17.0424 4.500933 34.916064 0.392394
2008-07-15 12:17:30 51°19.66 2°37.721 17.0479 4.501141 34.917171 0.427218
2008-07-15 12:18:30 51°19.575 2°37.915 17.0534 4.501764 34.917702 0.392394
2008-07-15 12:19:30 51°19.492 2°38.107 17.0577 4.502283 34.916633 0.392394
2008-07-15 12:20:30 51°19.404 2°38.321 17.0675 4.502698 34.91536 0.427218
2008-07-15 12:21:30 51°19.287 2°38.589 17.0639 4.503113 34.916877 0.462042
2008-07-15 12:22:30 51°19.168 2°38.859 17.0688 4.50384 34.920401 0.427218
2008-07-15 12:23:30 51°19.048 2°39.128 17.0812 4.50384 34.912037 0.35757
2008-07-15 12:24:30 51°18.932 2°39.397 17.0867 4.503943 34.906669 0.322746
2008-07-15 12:25:30 51°18.814 2°39.664 17.1267 4.504878 34.903638 0.427218
2008-07-15 12:26:30 51°18.697 2°39.935 17.1557 4.507161 34.888673 0.462042
2008-07-15 12:27:30 51°18.586 2°40.212 17.196 4.50903 34.879864 0.427218
2008-07-15 12:28:30 51°18.466 2°40.486 17.2208 4.511936 34.873128 0.322746
2008-07-15 12:29:30 51°18.341 2°40.756 17.2347 4.513389 34.869075 0.253098
2008-07-15 12:30:30 51°18.216 2°41.028 17.2339 4.514116 34.867051 0.287922
2008-07-15 12:31:30 51°18.09 2°41.296 17.2386 4.513908 34.859713 0.253098
2008-07-15 12:32:30 51°17.967 2°41.56 17.2344 4.513701 34.857916 0.218274
2008-07-15 12:33:30 51°17.844 2°41.826 17.2193 4.512662 34.854472 0.253098
2008-07-15 12:34:30 51°17.722 2°42.093 17.2357 4.510794 34.84661 0.253098
2008-07-15 12:35:30 51°17.601 2°42.36 17.2475 4.512143 34.845134 0.287922
2008-07-15 12:36:30 51°17.482 2°42.627 17.2877 4.514116 34.844898 0.35757
2008-07-15 12:37:30 51°17.363 2°42.892 17.3283 4.518476 34.846641 0.496866
2008-07-15 12:38:30 51°17.241 2°43.151 17.3449 4.521694 34.845435 0.496866
2008-07-15 12:39:30 51°17.117 2°43.408 17.3474 4.522317 34.840461 0.427218
2008-07-15 12:40:30 51°16.992 2°43.666 17.3668 4.521797 34.830463 0.35757
2008-07-15 12:41:30 51°16.869 2°43.924 17.3799 4.521797 34.817366 0.35757
2008-07-15 12:42:30 51°16.792 2°44.226 17.3983 4.522731 34.811649 0.322746
2008-07-15 12:43:30 51°16.733 2°44.546 17.4119 4.524392 34.809451 0.18345
2008-07-15 12:44:30 51°16.674 2°44.862 17.4233 4.525534 34.807598 0.148626
2008-07-15 12:45:30 51°16.617 2°45.179 17.4218 4.52595 34.802924 0.18345
2008-07-15 12:46:30 51°16.563 2°45.497 17.4237 4.524392 34.795006 0.18345
2008-07-15 12:47:30 51°16.501 2°45.81 17.4418 4.524288 34.787925 0.113802
2008-07-15 12:48:30 51°16.434 2°46.121 17.4801 4.5246 34.776182 0.218274
2008-07-15 12:49:30 51°16.373 2°46.434 17.5598 4.526779 34.746252 0.496866
2008-07-15 12:50:30 51°16.317 2°46.751 17.6359 4.531866 34.723623 0.740634
2008-07-15 12:51:30 51°16.254 2°47.07 17.6851 4.537471 34.714415 0.775459
2008-07-15 12:52:30 51°16.197 2°47.393 17.6929 4.540586 34.708417 0.636162
2008-07-15 12:53:30 51°16.126 2°47.71 17.677 4.54017 34.702819 0.427218
2008-07-15 12:54:30 51°16.057 2°48.028 17.6687 4.53799 34.695711 0.496866
2008-07-15 12:55:30 51°15.986 2°48.346 17.6552 4.536121 34.689228 1.541588
2008-07-15 12:56:30 51°15.923 2°48.664 17.6352 4.533422 34.681069 2.412189
2008-07-15 12:57:30 51°15.859 2°48.979 17.6392 4.53228 34.681493 3.004198
2008-07-15 12:58:30 51°15.782 2°49.285 17.667 4.533007 34.682276 2.795254
2008-07-15 12:59:30 51°15.725 2°49.604 17.7241 4.536744 34.677557 2.098773
2008-07-15 13:00:30 51°15.654 2°49.92 17.7534 4.541208 34.675682 1.576412
2008-07-15 13:01:30 51°15.587 2°50.233 17.7743 4.543804 34.676842 1.193347
2008-07-15 13:02:30 51°15.529 2°50.549 17.7956 4.545984 34.674454 1.158523
2008-07-15 13:03:30 51°15.481 2°50.872 17.8127 4.547749 34.673946 1.054051
2008-07-15 13:04:30 51°15.409 2°51.186 17.8016 4.548787 34.674008 0.984403
2008-07-15 13:05:30 51°15.345 2°51.502 17.8076 4.547852 34.675511 1.297819
2008-07-15 13:06:30 51°15.281 2°51.813 17.8421 4.548579 34.669525 1.889828
2008-07-15 13:07:30 51°15.211 2°52.124 17.8998 4.551901 34.659988 2.76043
2008-07-15 13:08:30 51°15.144 2°52.433 17.9323 4.555431 34.648202 3.526559
2008-07-15 13:09:30 51°15.064 2°52.735 17.9438 4.557611 34.641142 3.944447
2008-07-15 13:10:30 51°14.985 2°53.036 17.929 4.557195 34.636931 4.39716
2008-07-15 13:11:30 51°14.899 2°53.331 17.9155 4.553873 34.620092 5.163289
2008-07-15 13:12:30 51°14.808 2°53.622 17.9054 4.552731 34.623173 5.163289
2008-07-15 13:13:30 51°14.723 2°53.923 17.9114 4.550758 34.60906 4.989169
2008-07-15 13:14:30 51°14.639 2°54.221 17.9587 4.547643 34.569051 4.57128
2008-07-15 13:15:30 51°14.544 2°54.511 18.0472 4.548473 34.530408 4.815049
2008-07-15 13:16:30 51°14.451 2°54.805 18.1216 4.552002 34.489374 5.407058
2008-07-15 13:17:30 51°14.346 2°55.083 18.1605 4.554181 34.447101 5.267761
2008-07-15 13:18:30 51°14.234 2°55.293 18.1331 4.508289 34.053284 5.163289